Time;durP1;ratioP1;P1;durP2;ratioP2;P2;SDS_P1;SDS_P2;PMS_P1;PMS_P2;Temp;Humidity;BMP_temperature;BMP_pressure;BME280_temperature;BME280_humidity;BME280_pressure;Samples;Min_cycle;Max_cycle;Signal;HPM_P1;HPM_P2
2022/03/06 00:00:43;;;;;;;15.43;2.33;;;6.90;99.90;;;;;;5035652;28;20174;-60
2022/03/06 00:03:09;;;;;;;15.90;2.23;;;7.20;99.90;;;;;;5044322;28;20176;-60
2022/03/06 00:05:36;;;;;;;12.10;2.07;;;7.10;99.90;;;;;;5051346;28;20935;-60
2022/03/06 00:08:02;;;;;;;13.83;2.40;;;7.10;99.90;;;;;;5031263;28;20231;-60
2022/03/06 00:10:29;;;;;;;15.70;2.60;;;7.10;99.90;;;;;;5031516;28;20170;-61
2022/03/06 00:12:55;;;;;;;9.90;2.27;;;7.10;99.90;;;;;;5031567;28;20174;-61
2022/03/06 00:15:22;;;;;;;10.20;2.10;;;7.00;99.90;;;;;;5030639;28;20287;-62
2022/03/06 00:17:49;;;;;;;14.80;2.40;;;7.00;99.90;;;;;;5030180;28;20162;-63
2022/03/06 00:20:15;;;;;;;19.83;2.40;;;7.00;99.90;;;;;;5050537;28;20260;-62
2022/03/06 00:22:41;;;;;;;15.27;2.43;;;6.90;99.90;;;;;;5050670;28;20222;-62
2022/03/06 00:25:07;;;;;;;11.80;2.53;;;6.90;99.90;;;;;;5050088;28;20624;-62
2022/03/06 00:27:34;;;;;;;11.60;2.00;;;6.90;99.90;;;;;;5040262;28;20208;-62
2022/03/06 00:29:59;;;;;;;14.83;2.27;;;6.80;99.90;;;;;;5046744;28;20631;-62
2022/03/06 00:32:25;;;;;;;10.93;2.03;;;6.70;99.90;;;;;;5047519;28;20189;-62
2022/03/06 00:34:51;;;;;;;24.27;2.70;;;6.70;99.90;;;;;;5031172;28;20178;-64
2022/03/06 00:37:17;;;;;;;11.17;2.20;;;6.80;99.90;;;;;;5047077;28;20188;-64
2022/03/06 00:39:44;;;;;;;14.67;1.90;;;6.80;99.90;;;;;;5047849;28;20196;-64
2022/03/06 00:42:10;;;;;;;19.50;2.40;;;6.80;99.90;;;;;;5033475;28;20189;-63
2022/03/06 00:44:37;;;;;;;13.67;2.30;;;6.80;99.90;;;;;;5042322;28;20182;-63
2022/03/06 00:47:04;;;;;;;20.10;2.30;;;6.70;99.90;;;;;;5043763;28;20200;-63
2022/03/06 00:49:30;;;;;;;18.17;2.93;;;6.60;99.90;;;;;;5038576;28;20208;-63
2022/03/06 00:51:57;;;;;;;15.83;2.80;;;6.50;99.90;;;;;;5049125;28;20181;-62
2022/03/06 00:54:22;;;;;;;20.00;2.47;;;6.60;99.90;;;;;;5050093;28;20177;-63
2022/03/06 00:56:48;;;;;;;15.90;1.87;;;6.60;99.90;;;;;;5036290;28;20540;-62
2022/03/06 00:59:14;;;;;;;11.87;2.07;;;6.70;99.90;;;;;;5040271;28;20170;-63
2022/03/06 01:01:41;;;;;;;12.47;1.87;;;6.60;99.90;;;;;;5038740;28;20182;-63
2022/03/06 01:04:07;;;;;;;11.13;2.53;;;6.50;99.90;;;;;;5048277;28;20176;-64
2022/03/06 01:06:33;;;;;;;14.77;2.20;;;6.40;99.90;;;;;;5042979;28;20283;-64
2022/03/06 01:08:59;;;;;;;11.33;2.33;;;6.50;99.90;;;;;;5030156;28;20611;-63
2022/03/06 01:11:25;;;;;;;12.43;2.10;;;6.50;99.90;;;;;;5029338;28;20177;-63
2022/03/06 01:13:51;;;;;;;10.50;1.73;;;6.40;99.90;;;;;;5029986;28;20170;-63
2022/03/06 01:16:17;;;;;;;12.97;2.40;;;6.40;99.90;;;;;;5029465;28;20174;-63
2022/03/06 01:18:42;;;;;;;11.47;1.83;;;6.40;99.90;;;;;;5034943;28;20181;-63
2022/03/06 01:21:08;;;;;;;11.60;1.80;;;6.30;99.90;;;;;;5048361;28;20169;-64
2022/03/06 01:23:35;;;;;;;14.97;2.10;;;6.40;99.90;;;;;;5050077;28;20183;-63
2022/03/06 01:26:01;;;;;;;14.40;1.77;;;6.40;99.90;;;;;;5049705;28;20248;-63
2022/03/06 01:28:27;;;;;;;11.53;1.97;;;6.40;99.90;;;;;;5050182;28;20176;-62
2022/03/06 01:30:53;;;;;;;13.33;1.80;;;6.30;99.90;;;;;;5050361;28;20256;-62
2022/03/06 01:33:19;;;;;;;18.87;2.03;;;6.80;99.90;;;;;;5050221;28;20635;-61
2022/03/06 01:35:44;;;;;;;16.30;1.73;;;6.40;99.90;;;;;;5050291;28;20230;-61
2022/03/06 01:38:10;;;;;;;10.37;2.07;;;6.40;99.90;;;;;;5049918;28;20707;-60
2022/03/06 01:40:36;;;;;;;9.97;1.63;;;6.40;99.90;;;;;;5048817;28;20177;-60
2022/03/06 01:43:03;;;;;;;13.33;2.37;;;6.40;99.90;;;;;;5049905;28;20294;-61
2022/03/06 01:45:28;;;;;;;14.53;2.80;;;6.30;99.90;;;;;;5048784;28;20704;-61
2022/03/06 01:47:55;;;;;;;9.93;1.77;;;6.30;99.90;;;;;;5049235;28;20177;-61
2022/03/06 01:50:30;;;;;;;9.63;2.20;;;6.30;99.90;;;;;;5048802;28;20167;-61
2022/03/06 01:52:58;;;;;;;12.40;1.70;;;6.30;99.90;;;;;;5049423;28;20171;-61
2022/03/06 01:55:25;;;;;;;10.77;1.40;;;6.30;99.90;;;;;;5047025;28;20212;-61
2022/03/06 01:57:53;;;;;;;11.57;2.07;;;6.30;99.90;;;;;;5035567;28;20185;-61
2022/03/06 02:00:23;;;;;;;10.53;2.07;;;6.30;99.90;;;;;;5030167;28;20174;-61
2022/03/06 02:02:49;;;;;;;9.10;1.60;;;6.30;99.90;;;;;;5040436;28;20189;-61
2022/03/06 02:05:15;;;;;;;11.63;1.73;;;6.30;99.90;;;;;;5028731;28;20194;-61
2022/03/06 02:07:41;;;;;;;10.03;1.50;;;6.50;99.90;;;;;;5029019;28;20236;-61
2022/03/06 02:10:08;;;;;;;7.40;1.73;;;6.30;99.90;;;;;;5043570;28;20632;-61
2022/03/06 02:12:34;;;;;;;9.43;1.60;;;6.30;99.90;;;;;;5045016;28;20178;-62
2022/03/06 02:15:02;;;;;;;13.60;2.00;;;6.50;99.90;;;;;;5036060;28;20636;-61
2022/03/06 02:17:29;;;;;;;14.03;2.40;;;6.30;99.90;;;;;;5041987;28;20162;-61
2022/03/06 02:19:59;;;;;;;13.93;2.30;;;6.20;99.90;;;;;;5042680;28;20173;-62
2022/03/06 02:22:29;;;;;;;10.17;2.00;;;6.90;99.90;;;;;;5045982;28;20184;-61
2022/03/06 02:24:56;;;;;;;8.53;1.97;;;6.30;99.90;;;;;;5029600;28;20645;-62
2022/03/06 02:27:22;;;;;;;11.97;2.33;;;6.20;99.90;;;;;;5028926;28;20166;-63
2022/03/06 02:29:48;;;;;;;12.00;2.00;;;6.20;99.90;;;;;;5029139;28;20181;-64
2022/03/06 02:32:16;;;;;;;9.27;2.40;;;6.20;99.90;;;;;;5031218;28;20179;-64
2022/03/06 02:34:44;;;;;;;11.23;2.17;;;6.30;99.90;;;;;;5034747;28;20328;-64
2022/03/06 02:37:11;;;;;;;11.20;2.20;;;6.20;99.90;;;;;;5052659;28;20165;-64
2022/03/06 02:39:37;;;;;;;16.03;2.33;;;6.10;99.90;;;;;;5053016;28;20170;-62
2022/03/06 02:42:04;;;;;;;11.87;2.03;;;6.10;99.90;;;;;;5051498;28;20189;-62
2022/03/06 02:44:30;;;;;;;13.83;2.30;;;6.30;99.90;;;;;;5052514;28;20221;-63
2022/03/06 02:46:56;;;;;;;15.03;2.47;;;6.10;99.90;;;;;;5051820;28;20215;-63
2022/03/06 02:49:22;;;;;;;13.37;2.50;;;6.10;99.90;;;;;;5049010;28;20241;-63
2022/03/06 02:51:48;;;;;;;18.63;2.80;;;6.00;99.90;;;;;;5032565;28;20186;-63
2022/03/06 02:54:17;;;;;;;13.47;2.77;;;6.00;99.90;;;;;;5031752;28;20649;-63
2022/03/06 02:56:43;;;;;;;15.23;3.50;;;6.00;99.90;;;;;;5032941;28;20193;-62
2022/03/06 02:59:09;;;;;;;8.67;2.57;;;6.00;99.90;;;;;;5032077;28;20170;-63
2022/03/06 03:01:41;;;;;;;16.40;2.97;;;6.00;99.90;;;;;;5031604;28;20656;-63
2022/03/06 03:04:08;;;;;;;12.17;2.10;;;5.90;99.90;;;;;;5031930;28;20633;-62
2022/03/06 03:06:34;;;;;;;14.60;2.87;;;5.90;99.90;;;;;;5031269;28;20213;-62
2022/03/06 03:09:00;;;;;;;10.80;2.33;;;6.00;99.90;;;;;;5032248;28;20238;-63
2022/03/06 03:11:25;;;;;;;19.30;3.07;;;6.00;99.90;;;;;;5034416;28;20174;-62
2022/03/06 03:13:51;;;;;;;13.17;2.73;;;6.00;99.90;;;;;;5039942;28;20170;-64
2022/03/06 03:16:18;;;;;;;11.57;2.90;;;6.00;99.90;;;;;;5052424;28;20185;-62
2022/03/06 03:18:43;;;;;;;11.93;3.10;;;6.00;99.90;;;;;;5037755;28;20201;-62
2022/03/06 03:21:09;;;;;;;10.80;2.90;;;6.00;99.90;;;;;;5031481;28;20174;-64
2022/03/06 03:23:34;;;;;;;7.87;3.07;;;6.00;99.90;;;;;;5031424;28;20699;-64
2022/03/06 03:26:00;;;;;;;11.70;3.27;;;6.00;99.90;;;;;;5038406;28;20714;-64
2022/03/06 03:28:26;;;;;;;13.03;3.17;;;6.00;99.90;;;;;;5031172;28;20619;-64
2022/03/06 03:30:51;;;;;;;11.80;3.50;;;6.00;99.90;;;;;;5032718;28;20181;-64
2022/03/06 03:33:17;;;;;;;17.07;3.37;;;6.00;99.90;;;;;;5031954;28;20178;-64
2022/03/06 03:35:42;;;;;;;10.63;3.50;;;6.00;99.90;;;;;;5035184;28;20174;-64
2022/03/06 03:38:08;;;;;;;12.03;3.40;;;6.00;99.90;;;;;;5045541;28;20176;-63
2022/03/06 03:40:34;;;;;;;13.93;3.93;;;6.00;99.90;;;;;;5050923;28;20646;-65
2022/03/06 03:42:59;;;;;;;13.80;4.13;;;6.00;99.90;;;;;;5045743;28;20220;-65
2022/03/06 03:45:25;;;;;;;13.83;3.90;;;6.80;99.90;;;;;;5038328;28;20216;-65
2022/03/06 03:47:50;;;;;;;15.63;4.13;;;6.10;99.90;;;;;;5043448;28;20253;-66
2022/03/06 03:50:16;;;;;;;15.50;4.17;;;6.00;99.90;;;;;;5042728;28;20179;-66
2022/03/06 03:52:42;;;;;;;14.40;3.97;;;5.80;99.90;;;;;;5049559;28;20179;-66
2022/03/06 03:55:08;;;;;;;14.07;4.60;;;5.90;99.90;;;;;;5037931;28;20538;-65
2022/03/06 03:57:33;;;;;;;14.47;4.60;;;5.90;99.90;;;;;;5044958;28;20261;-66
2022/03/06 03:59:59;;;;;;;14.63;4.43;;;6.20;99.90;;;;;;5045290;28;20177;-64
2022/03/06 04:02:25;;;;;;;12.83;4.50;;;6.00;99.90;;;;;;5042859;28;20185;-64
2022/03/06 04:04:51;;;;;;;11.93;4.70;;;6.00;99.90;;;;;;5042791;28;20173;-64
2022/03/06 04:07:17;;;;;;;25.13;4.93;;;6.00;99.90;;;;;;5037014;28;20178;-63
2022/03/06 04:09:42;;;;;;;17.50;5.83;;;5.90;99.90;;;;;;5036827;28;20173;-63
2022/03/06 04:12:08;;;;;;;19.90;5.40;;;5.80;99.90;;;;;;5050321;28;20192;-62
2022/03/06 04:14:34;;;;;;;19.27;5.70;;;5.80;99.90;;;;;;5049984;28;20177;-62
2022/03/06 04:17:00;;;;;;;19.30;5.60;;;5.70;99.90;;;;;;5037002;28;20239;-62
2022/03/06 04:19:26;;;;;;;19.17;4.93;;;5.80;99.90;;;;;;5033938;28;20263;-63
2022/03/06 04:21:53;;;;;;;18.40;5.37;;;5.60;99.90;;;;;;5029438;28;20189;-64
2022/03/06 04:24:18;;;;;;;16.27;5.87;;;5.60;99.90;;;;;;5034843;28;20185;-64
2022/03/06 04:26:44;;;;;;;18.23;5.67;;;5.50;99.90;;;;;;5050396;28;20543;-63
2022/03/06 04:29:10;;;;;;;17.53;5.40;;;5.50;99.90;;;;;;5034063;28;20181;-64
2022/03/06 04:31:35;;;;;;;18.37;6.40;;;5.50;99.90;;;;;;5050536;28;20181;-67
2022/03/06 04:34:01;;;;;;;17.93;6.03;;;5.50;99.90;;;;;;5051054;28;20220;-64
2022/03/06 04:36:27;;;;;;;16.97;5.97;;;5.40;99.90;;;;;;5050834;28;20177;-64
2022/03/06 04:38:52;;;;;;;16.20;6.33;;;5.60;99.90;;;;;;5039183;28;20205;-63
2022/03/06 04:41:18;;;;;;;14.13;5.50;;;5.40;99.90;;;;;;5050860;28;20173;-63
2022/03/06 04:43:44;;;;;;;14.53;5.60;;;5.50;99.90;;;;;;5033231;28;20230;-62
2022/03/06 04:46:10;;;;;;;16.33;5.87;;;5.40;99.90;;;;;;5047750;28;20270;-62
2022/03/06 04:48:36;;;;;;;16.67;6.07;;;5.30;99.90;;;;;;5038609;28;20189;-62
2022/03/06 04:51:02;;;;;;;14.00;5.67;;;5.30;99.90;;;;;;5050488;28;20212;-62
2022/03/06 04:53:28;;;;;;;15.80;5.43;;;5.30;99.90;;;;;;5037312;28;20624;-62
2022/03/06 04:55:54;;;;;;;19.33;6.00;;;5.40;99.90;;;;;;5030911;28;20185;-62
2022/03/06 04:58:19;;;;;;;20.27;5.80;;;5.40;99.90;;;;;;5030422;28;20189;-62
2022/03/06 05:00:45;;;;;;;14.77;5.60;;;5.40;99.90;;;;;;5030788;28;20260;-62
2022/03/06 05:03:11;;;;;;;14.67;5.33;;;5.40;99.90;;;;;;5030318;28;20162;-62
2022/03/06 05:05:36;;;;;;;18.07;6.07;;;5.30;99.90;;;;;;5044347;28;20668;-62
2022/03/06 05:08:02;;;;;;;15.00;6.50;;;5.30;99.90;;;;;;5050905;28;20188;-61
2022/03/06 05:10:28;;;;;;;21.30;6.93;;;5.30;99.90;;;;;;5038304;28;20170;-63
2022/03/06 05:12:53;;;;;;;17.10;6.17;;;5.20;99.90;;;;;;5030956;28;20181;-62
2022/03/06 05:15:19;;;;;;;17.37;6.17;;;5.30;99.90;;;;;;5029447;28;20252;-63
2022/03/06 05:17:45;;;;;;;16.03;7.13;;;5.30;99.90;;;;;;5029780;28;20169;-62
2022/03/06 05:20:12;;;;;;;10.90;6.03;;;6.20;99.90;;;;;;5029813;28;20493;-63
2022/03/06 05:22:38;;;;;;;18.53;6.97;;;5.40;99.90;;;;;;5042956;28;20208;-63
2022/03/06 05:25:06;;;;;;;18.47;7.20;;;5.40;99.90;;;;;;5050358;28;20181;-64
2022/03/06 05:27:32;;;;;;;15.80;6.20;;;5.40;99.90;;;;;;5050004;28;20565;-65
2022/03/06 05:29:58;;;;;;;17.40;6.77;;;5.40;99.90;;;;;;5049245;28;20165;-64
2022/03/06 05:32:24;;;;;;;12.57;6.10;;;5.40;99.90;;;;;;5050328;28;20188;-64
2022/03/06 05:34:50;;;;;;;18.10;6.53;;;5.50;99.90;;;;;;5048737;28;20177;-63
2022/03/06 05:37:15;;;;;;;15.03;6.70;;;5.60;99.90;;;;;;5049363;28;20252;-63
2022/03/06 05:39:41;;;;;;;13.50;6.23;;;5.70;99.90;;;;;;5049736;28;20223;-63
2022/03/06 05:42:07;;;;;;;22.07;6.27;;;5.50;99.90;;;;;;5049492;28;20207;-63
2022/03/06 05:44:32;;;;;;;13.50;5.63;;;5.60;99.90;;;;;;5049145;28;20212;-64
2022/03/06 05:46:58;;;;;;;19.27;6.43;;;5.50;99.90;;;;;;5049563;28;20287;-64
2022/03/06 05:49:23;;;;;;;13.27;6.33;;;5.60;99.90;;;;;;5047210;28;20226;-63
2022/03/06 05:51:49;;;;;;;12.13;5.23;;;5.50;99.90;;;;;;5032570;28;20676;-63
2022/03/06 05:54:15;;;;;;;17.57;5.90;;;5.50;99.90;;;;;;5032010;28;20182;-64
2022/03/06 05:56:41;;;;;;;15.17;6.33;;;5.60;99.90;;;;;;5035208;28;20173;-63
2022/03/06 05:59:07;;;;;;;14.97;5.10;;;4.90;99.90;;;;;;5041060;28;20227;-64
2022/03/06 06:01:33;;;;;;;17.37;5.93;;;5.60;99.90;;;;;;5029193;28;20178;-64
2022/03/06 06:03:59;;;;;;;16.60;5.93;;;5.50;99.90;;;;;;5044406;28;20251;-64
2022/03/06 06:06:26;;;;;;;10.70;5.23;;;5.50;99.90;;;;;;5050264;28;20208;-64
2022/03/06 06:08:53;;;;;;;11.07;5.47;;;5.60;99.90;;;;;;5053410;28;20165;-64
2022/03/06 06:11:19;;;;;;;10.50;5.23;;;5.60;99.90;;;;;;5053304;28;20187;-64
2022/03/06 06:13:45;;;;;;;16.23;5.60;;;5.50;99.90;;;;;;5052805;28;20628;-62
2022/03/06 06:16:11;;;;;;;13.43;5.37;;;5.50;99.90;;;;;;5037457;28;20265;-61
2022/03/06 06:18:37;;;;;;;11.70;5.07;;;5.50;99.90;;;;;;5033306;28;20608;-60
2022/03/06 06:21:03;;;;;;;12.97;5.77;;;5.60;99.90;;;;;;5032674;28;20190;-61
2022/03/06 06:23:29;;;;;;;13.83;6.03;;;5.60;99.90;;;;;;5033370;28;20169;-61
2022/03/06 06:25:55;;;;;;;14.07;5.47;;;5.90;99.90;;;;;;5032598;28;20679;-61
2022/03/06 06:28:21;;;;;;;15.00;5.60;;;5.70;99.90;;;;;;5033259;28;20700;-61
2022/03/06 06:30:46;;;;;;;15.43;5.00;;;5.70;99.90;;;;;;5031970;28;20178;-61
2022/03/06 06:33:12;;;;;;;12.93;5.23;;;5.60;99.90;;;;;;5033444;28;20185;-61
2022/03/06 06:35:38;;;;;;;13.23;5.23;;;5.60;99.90;;;;;;5032807;28;20174;-61
2022/03/06 06:38:04;;;;;;;14.23;5.10;;;5.70;99.90;;;;;;5032713;28;20178;-61
2022/03/06 06:40:31;;;;;;;13.73;5.53;;;5.70;99.90;;;;;;5032559;28;20241;-61
2022/03/06 06:42:56;;;;;;;14.73;5.10;;;5.60;99.90;;;;;;5032371;28;20248;-61
2022/03/06 06:45:22;;;;;;;11.10;5.00;;;5.60;99.90;;;;;;5032062;28;20241;-61
2022/03/06 06:47:48;;;;;;;11.63;4.80;;;5.60;99.90;;;;;;5032637;28;20166;-61
2022/03/06 06:50:14;;;;;;;11.87;4.93;;;5.60;99.90;;;;;;5035660;28;20194;-62
2022/03/06 06:52:39;;;;;;;10.07;5.20;;;5.60;99.90;;;;;;5052968;28;20620;-62
2022/03/06 06:55:06;;;;;;;12.97;5.20;;;5.80;99.90;;;;;;5052806;28;20533;-62
2022/03/06 06:57:32;;;;;;;12.30;5.70;;;5.90;99.90;;;;;;5051397;28;20177;-62
2022/03/06 06:59:59;;;;;;;15.97;5.67;;;5.70;99.90;;;;;;5051906;28;20647;-62
2022/03/06 07:02:24;;;;;;;11.57;5.03;;;5.60;99.90;;;;;;5046162;28;20185;-62
2022/03/06 07:04:50;;;;;;;10.97;5.40;;;5.70;99.90;;;;;;5040516;28;20174;-62
2022/03/06 07:07:16;;;;;;;13.30;5.33;;;5.70;99.90;;;;;;5035264;28;20186;-62
2022/03/06 07:09:42;;;;;;;10.47;5.10;;;5.70;99.90;;;;;;5051491;28;20189;-62
2022/03/06 07:12:08;;;;;;;15.97;4.77;;;5.70;99.90;;;;;;5045181;28;20219;-62
2022/03/06 07:14:34;;;;;;;10.63;5.33;;;5.70;99.90;;;;;;5032308;28;20166;-63
2022/03/06 07:16:59;;;;;;;9.43;4.50;;;5.70;99.90;;;;;;5030834;28;20190;-61
2022/03/06 07:19:25;;;;;;;8.73;4.73;;;5.70;99.90;;;;;;5029979;28;20174;-59
2022/03/06 07:21:51;;;;;;;13.33;4.87;;;5.60;99.90;;;;;;5031229;28;20281;-60
2022/03/06 07:24:17;;;;;;;11.07;4.87;;;5.60;99.90;;;;;;5037722;28;20169;-59
2022/03/06 07:26:42;;;;;;;19.47;4.13;;;5.70;99.90;;;;;;5051949;28;20266;-60
2022/03/06 07:29:08;;;;;;;10.57;4.90;;;5.70;99.90;;;;;;5051963;28;20173;-59
2022/03/06 07:31:34;;;;;;;8.17;4.30;;;5.80;99.90;;;;;;5051440;28;20201;-59
2022/03/06 07:34:00;;;;;;;11.17;5.00;;;5.50;99.90;;;;;;5051696;28;20569;-59
2022/03/06 07:36:26;;;;;;;10.80;5.27;;;5.60;99.90;;;;;;5051592;28;20187;-59
2022/03/06 07:38:52;;;;;;;15.43;5.60;;;5.60;99.90;;;;;;5051197;28;20182;-59
2022/03/06 07:41:18;;;;;;;14.23;6.03;;;5.70;99.90;;;;;;5049675;28;20645;-59
2022/03/06 07:43:44;;;;;;;14.00;5.53;;;5.70;99.90;;;;;;5044315;28;20312;-63
2022/03/06 07:46:10;;;;;;;12.53;5.40;;;5.80;99.90;;;;;;5038134;28;20683;-63
2022/03/06 07:48:36;;;;;;;14.30;5.97;;;5.70;99.90;;;;;;5051482;28;20161;-63
2022/03/06 07:51:02;;;;;;;14.33;6.00;;;5.70;99.90;;;;;;5048914;28;20239;-62
2022/03/06 07:53:28;;;;;;;12.90;5.60;;;5.70;99.90;;;;;;5051304;28;20161;-63
2022/03/06 07:55:54;;;;;;;15.73;5.27;;;5.70;99.90;;;;;;5051284;28;20184;-64
2022/03/06 07:58:20;;;;;;;16.00;5.70;;;5.70;99.90;;;;;;5051043;28;20193;-62
2022/03/06 08:00:45;;;;;;;10.63;5.00;;;5.70;99.90;;;;;;5049900;28;20180;-60
2022/03/06 08:03:11;;;;;;;11.23;5.17;;;5.60;99.90;;;;;;5051510;28;20188;-60
2022/03/06 08:05:37;;;;;;;13.13;5.47;;;5.60;99.90;;;;;;5049416;28;20209;-61
2022/03/06 08:08:03;;;;;;;10.97;5.73;;;5.50;99.90;;;;;;5051771;28;20565;-61
2022/03/06 08:10:29;;;;;;;14.03;5.80;;;5.60;99.90;;;;;;5036016;28;20253;-60
2022/03/06 08:12:54;;;;;;;14.57;6.30;;;5.60;99.90;;;;;;5030340;28;20204;-60
2022/03/06 08:15:20;;;;;;;16.83;5.73;;;5.60;99.90;;;;;;5046764;28;20259;-60
2022/03/06 08:17:46;;;;;;;14.77;6.00;;;5.60;99.90;;;;;;5050738;28;20177;-60
2022/03/06 08:20:12;;;;;;;19.80;5.63;;;5.60;99.90;;;;;;5051285;28;20204;-61
2022/03/06 08:22:38;;;;;;;12.20;5.50;;;5.60;99.90;;;;;;5050191;28;20181;-61
2022/03/06 08:25:04;;;;;;;13.00;5.77;;;5.70;99.90;;;;;;5051010;28;20189;-60
2022/03/06 08:27:32;;;;;;;15.50;6.17;;;5.60;99.90;;;;;;5047881;28;20643;-60
2022/03/06 08:29:58;;;;;;;11.17;6.23;;;5.70;99.90;;;;;;5038871;28;20169;-60
2022/03/06 08:32:23;;;;;;;14.67;6.17;;;5.70;99.90;;;;;;5050664;28;20267;-61
2022/03/06 08:34:51;;;;;;;13.90;5.87;;;5.70;99.90;;;;;;5037143;28;20260;-60
2022/03/06 08:37:18;;;;;;;12.27;5.77;;;;;;;;;;5046340;28;20193;-60
2022/03/06 08:39:45;;;;;;;17.47;7.10;;;5.80;99.90;;;;;;5049727;28;20264;-60
2022/03/06 08:42:10;;;;;;;15.80;5.83;;;5.90;99.90;;;;;;5049220;28;20568;-59
2022/03/06 08:44:36;;;;;;;18.17;6.47;;;6.00;99.90;;;;;;5045654;28;20220;-65
2022/03/06 08:47:02;;;;;;;14.47;5.90;;;5.90;99.90;;;;;;5043098;28;20669;-64
2022/03/06 08:49:28;;;;;;;14.50;6.30;;;6.20;99.90;;;;;;5030541;28;20185;-65
2022/03/06 08:51:54;;;;;;;15.87;5.93;;;6.10;99.90;;;;;;5031092;28;20177;-63
2022/03/06 08:54:20;;;;;;;17.13;6.80;;;6.20;99.90;;;;;;5030074;28;20174;-61
2022/03/06 08:56:46;;;;;;;18.07;6.77;;;6.30;99.90;;;;;;5032420;28;20260;-61
2022/03/06 08:59:12;;;;;;;15.73;6.10;;;6.40;99.90;;;;;;5050225;28;20216;-62
2022/03/06 09:01:38;;;;;;;16.10;6.70;;;6.30;99.90;;;;;;5050432;28;20173;-61
2022/03/06 09:04:04;;;;;;;16.83;6.80;;;6.20;99.90;;;;;;5050904;28;20181;-62
2022/03/06 09:06:30;;;;;;;16.07;6.50;;;6.40;99.90;;;;;;5047374;28;20201;-63
2022/03/06 09:08:55;;;;;;;18.07;6.53;;;6.50;99.90;;;;;;5049902;28;20577;-62
2022/03/06 09:11:21;;;;;;;12.47;5.83;;;6.50;99.90;;;;;;5049297;28;20181;-63
2022/03/06 09:13:46;;;;;;;13.77;5.97;;;6.50;99.90;;;;;;5050269;28;20194;-62
2022/03/06 09:16:12;;;;;;;14.27;6.17;;;6.50;99.90;;;;;;5048893;28;20172;-63
2022/03/06 09:18:38;;;;;;;19.33;6.80;;;6.60;99.90;;;;;;5049526;28;20272;-63
2022/03/06 09:21:03;;;;;;;18.80;6.10;;;6.50;99.90;;;;;;5049046;28;20651;-63
2022/03/06 09:23:29;;;;;;;15.77;5.30;;;6.60;99.90;;;;;;5038452;28;20177;-62
2022/03/06 09:25:55;;;;;;;17.83;5.63;;;6.60;99.90;;;;;;5037778;28;20703;-63
2022/03/06 09:28:21;;;;;;;13.03;5.50;;;6.60;99.90;;;;;;5041030;28;20252;-61
2022/03/06 09:30:47;;;;;;;15.47;6.43;;;6.60;99.90;;;;;;5048883;28;20181;-69
2022/03/06 09:33:12;;;;;;;15.10;5.60;;;6.60;99.90;;;;;;5056409;28;20174;-69
2022/03/06 09:35:38;;;;;;;15.63;5.83;;;6.50;99.90;;;;;;5049904;28;20696;-68
2022/03/06 09:38:04;;;;;;;16.40;6.60;;;6.50;99.90;;;;;;5045282;28;20182;-67
2022/03/06 09:40:30;;;;;;;22.37;7.37;;;6.50;99.90;;;;;;5043370;28;20179;-66
2022/03/06 09:42:56;;;;;;;17.47;6.47;;;6.50;99.90;;;;;;5049614;28;20233;-66
2022/03/06 09:45:25;;;;;;;12.50;6.23;;;6.60;99.90;;;;;;5046530;28;20208;-66
2022/03/06 09:47:53;;;;;;;12.03;5.80;;;6.50;99.90;;;;;;5048557;28;20186;-67
2022/03/06 09:50:19;;;;;;;21.77;6.37;;;6.50;99.90;;;;;;5042192;28;20174;-61
2022/03/06 09:52:45;;;;;;;14.50;5.50;;;6.50;99.90;;;;;;5033627;28;20162;-65
2022/03/06 09:55:11;;;;;;;18.70;6.03;;;6.50;99.90;;;;;;5032369;28;20196;-61
2022/03/06 09:57:37;;;;;;;17.50;6.73;;;6.50;99.90;;;;;;5032796;28;20181;-61
2022/03/06 10:00:06;;;;;;;12.67;6.07;;;6.30;99.90;;;;;;5033089;28;20181;-60
2022/03/06 10:02:49;;;;;;;15.23;5.70;;;6.40;99.90;;;;;;5037814;28;20632;-61
2022/03/06 10:05:42;;;;;;;16.77;5.73;;;6.40;99.90;;;;;;5032796;28;20182;-61
2022/03/06 10:08:27;;;;;;;15.17;5.97;;;6.30;99.90;;;;;;5035930;28;20261;-60
2022/03/06 10:10:58;;;;;;;14.03;5.13;;;6.30;99.90;;;;;;5037361;28;20656;-61
2022/03/06 10:13:28;;;;;;;16.80;6.00;;;4.00;99.90;;;;;;5032982;28;20170;-61
2022/03/06 10:16:19;;;;;;;14.83;5.83;;;6.30;99.90;;;;;;5033607;28;20178;-62
2022/03/06 10:18:49;;;;;;;12.70;5.40;;;6.30;99.90;;;;;;5032982;28;20157;-60
2022/03/06 10:21:41;;;;;;;21.20;5.77;;;6.50;99.90;;;;;;5041714;28;20181;-62
2022/03/06 10:24:08;;;;;;;16.90;5.83;;;6.50;99.90;;;;;;5052530;28;20181;-62
2022/03/06 10:26:36;;;;;;;15.00;6.60;;;6.40;99.90;;;;;;5037500;28;20225;-62
2022/03/06 10:29:11;;;;;;;13.43;5.97;;;6.50;99.90;;;;;;5053773;28;20169;-61
2022/03/06 10:31:51;;;;;;;14.23;6.07;;;6.30;99.90;;;;;;5052842;28;20191;-61
2022/03/06 10:34:18;;;;;;;13.80;5.77;;;6.30;99.90;;;;;;5052825;28;20585;-62
2022/03/06 10:36:45;;;;;;;17.77;6.60;;;6.40;99.90;;;;;;5043572;28;20173;-61
2022/03/06 10:39:19;;;;;;;13.83;5.70;;;6.60;99.90;;;;;;5035484;28;20203;-61
2022/03/06 10:41:50;;;;;;;15.07;6.07;;;6.90;99.90;;;;;;5047169;28;20179;-61
2022/03/06 10:44:18;;;;;;;12.17;5.80;;;7.30;99.90;;;;;;5050765;28;20224;-61
2022/03/06 10:47:21;;;;;;;14.57;5.43;;;8.20;99.90;;;;;;4944712;22;22369;-65
2022/03/06 10:50:05;;;;;;;17.87;6.13;;;8.30;99.90;;;;;;5029809;28;20207;-57
2022/03/06 10:52:41;;;;;;;13.97;5.57;;;9.40;99.90;;;;;;5032007;28;20177;-57
2022/03/06 10:55:07;;;;;;;20.17;6.03;;;10.70;99.90;;;;;;5031706;28;20181;-57
2022/03/06 10:57:33;;;;;;;10.60;5.37;;;10.50;99.90;;;;;;5032197;28;20170;-57
2022/03/06 11:00:00;;;;;;;14.37;5.77;;;14.30;99.90;;;;;;5032926;28;20249;-57
2022/03/06 11:02:27;;;;;;;13.25;5.35;;;13.60;99.90;;;;;;5031657;28;20178;-57
2022/03/06 11:04:56;;;;;;;9.90;4.82;;;14.00;99.90;;;;;;5031993;28;20238;-55
2022/03/06 11:07:25;;;;;;;12.45;5.03;;;17.60;99.90;;;;;;5031650;28;20201;-56
2022/03/06 11:09:54;;;;;;;11.80;4.82;;;17.40;99.90;;;;;;5030954;28;20167;-55
2022/03/06 11:12:22;;;;;;;9.95;4.68;;;14.90;99.90;;;;;;5014926;28;20181;-56
2022/03/06 11:14:48;;;;;;;10.02;4.88;;;13.50;99.90;;;;;;5032741;28;20190;-56
2022/03/06 11:17:14;;;;;;;13.15;5.07;;;12.70;99.90;;;;;;5031645;28;20196;-57
2022/03/06 11:19:40;;;;;;;9.75;4.95;;;11.20;99.90;;;;;;5031823;28;20228;-57
2022/03/06 11:22:32;;;;;;;7.63;4.30;;;11.20;99.90;;;;;;5031532;28;20174;-57
2022/03/06 11:25:05;;;;;;;10.23;4.85;;;10.20;99.90;;;;;;5027880;28;20277;-57
2022/03/06 11:27:48;;;;;;;9.57;4.88;;;9.60;99.90;;;;;;5031410;28;20196;-57
2022/03/06 11:30:21;;;;;;;13.87;4.77;;;9.20;99.90;;;;;;5031359;28;20173;-57
2022/03/06 11:33:06;;;;;;;17.30;5.67;;;8.90;99.90;;;;;;5031469;28;20249;-58
2022/03/06 11:35:43;;;;;;;11.40;5.73;;;8.30;99.90;;;;;;5031745;28;20547;-57
2022/03/06 11:38:11;;;;;;;14.10;5.13;;;8.50;99.90;;;;;;5030859;28;20252;-57
2022/03/06 11:40:46;;;;;;;9.93;5.10;;;8.50;99.90;;;;;;5031359;28;20186;-57
2022/03/06 11:43:33;;;;;;;13.17;4.50;;;8.50;99.90;;;;;;5032174;28;20169;-57
2022/03/06 11:45:59;;;;;;;15.93;4.67;;;8.50;99.90;;;;;;5031391;28;20215;-57
2022/03/06 11:48:24;;;;;;;11.93;4.00;;;8.40;99.90;;;;;;5031327;28;20772;-57
2022/03/06 11:51:17;;;;;;;10.87;3.23;;;8.70;99.90;;;;;;5031128;28;20223;-58
2022/03/06 11:54:05;;;;;;;11.67;3.50;;;9.00;99.90;;;;;;5031916;28;20636;-58
2022/03/06 11:56:39;;;;;;;9.80;3.23;;;9.60;99.90;;;;;;5029726;28;20190;-58
2022/03/06 11:59:10;;;;;;;8.60;3.20;;;9.10;99.90;;;;;;5031197;28;20173;-62
2022/03/06 12:01:42;;;;;;;13.70;3.17;;;9.00;99.90;;;;;;5031096;28;20596;-66
2022/03/06 12:04:07;;;;;;;8.83;3.10;;;8.80;99.90;;;;;;5030932;28;20181;-64
2022/03/06 12:06:40;;;;;;;8.63;3.00;;;8.60;99.90;;;;;;5031198;28;20359;-67
2022/03/06 12:09:26;;;;;;;8.83;2.80;;;8.50;99.90;;;;;;5031091;28;20652;-62
2022/03/06 12:11:54;;;;;;;5.53;3.27;;;8.20;99.90;;;;;;5029962;28;20675;-64
2022/03/06 12:14:29;;;;;;;7.47;3.30;;;8.20;99.90;;;;;;5030241;28;20185;-64
2022/03/06 12:17:00;;;;;;;10.23;3.30;;;8.20;99.90;;;;;;5030456;28;20530;-63
2022/03/06 12:19:29;;;;;;;9.33;3.53;;;8.30;99.90;;;;;;5030339;28;20174;-63
2022/03/06 12:22:21;;;;;;;9.40;3.30;;;8.40;99.90;;;;;;5031642;28;20178;-63
2022/03/06 12:25:10;;;;;;;10.13;3.40;;;8.60;99.90;;;;;;5030970;28;20180;-63
2022/03/06 12:27:41;;;;;;;8.43;3.27;;;9.10;99.90;;;;;;5030628;28;20193;-62
2022/03/06 12:30:17;;;;;;;13.13;3.50;;;9.90;99.90;;;;;;5031126;28;20194;-63
2022/03/06 12:32:43;;;;;;;7.23;3.07;;;10.70;99.90;;;;;;5031037;28;20206;-62
2022/03/06 12:35:14;;;;;;;8.53;2.70;;;10.60;99.90;;;;;;5029839;28;20972;-60
2022/03/06 12:37:54;;;;;;;7.10;2.87;;;11.10;99.90;;;;;;5012705;28;20322;-61
2022/03/06 12:40:24;;;;;;;9.50;3.10;;;10.60;99.90;;;;;;5030561;28;20166;-61
2022/03/06 12:43:05;;;;;;;8.27;3.40;;;10.70;99.90;;;;;;5030391;28;20178;-61
2022/03/06 12:45:32;;;;;;;6.87;2.37;;;11.00;99.90;;;;;;5030166;28;20244;-62
2022/03/06 12:47:58;;;;;;;8.23;2.78;;;12.10;99.90;;;;;;5030594;28;20253;-61
2022/03/06 12:50:24;;;;;;;8.07;2.83;;;12.20;99.90;;;;;;5029922;28;20176;-62